Meteo Giornale » Osservazioni meteo Stati Uniti (USA) » Springfield
ore: 12:52 - Osservazioni Meteo Springfield
Lat. 37° 14' N Lon. 93° 23' W Alt. 386 metri s.l.m.
36 °C
Nuvoloso
Temp. 24 Ore
23 °C
36 °C
Ovest
18.5 Km/h
Dew point 16 °C
Umidità 30 %
Visibilità 10 Km
Il sole sorge alle ore 06:43
Il sole tramonta alle ore 19:43
| Data e Ora | Cielo e Fenomeni | T °C | DP °C | Um. % | Pres. hPa | Vis. km | Vento km/h | |
|---|---|---|---|---|---|---|---|---|
| Oggi h: 12:52 | Nuvoloso | 36 | 16 | 30 | 1017 | 10 | O 18.5 | |
| Oggi h: 11:52 | Sereno | 35 | 16 | 32 | 1018 | 10 | O 16.7 | |
| Oggi h: 10:52 | Sereno | 33 | 19 | 43 | 1018 | 10 | S 18.5 | |
| Oggi h: 09:52 | Sereno | 30 | 19 | 51 | 1018 | 10 | S/SO 20.3 | |
| Oggi h: 08:52 | Sereno | 27 | 17 | 54 | 1018 | 10 | S 20.3 | |
| Oggi h: 07:52 | Sereno | 24 | 17 | 64 | 1018 | 10 | S 14.8 | |
| Oggi h: 06:52 | Sereno | 23 | 16 | 64 | 1017 | 10 | S/SE 18.5 | |
| Oggi h: 05:52 | Sereno | 23 | 16 | 64 | 1016 | 10 | S/SE 16.7 | |
| Oggi h: 04:52 | Sereno | 23 | 16 | 64 | 1016 | 10 | S/SE 16.7 | |
| Oggi h: 03:52 | Sereno | 24 | 17 | 64 | 1016 | 10 | S/SE 20.3 | |
| Oggi h: 02:52 | Sereno | 24 | 17 | 64 | 1016 | 10 | S/SE 16.7 | |
| Oggi h: 01:52 | Sereno | 25 | 17 | 61 | 1016 | 10 | S/SE 16.7 | |
| Oggi h: 00:52 | Sereno | 26 | 17 | 57 | 1016 | 10 | S/SE 20.3 | |
| Ieri h: 23:52 | Sereno | 27 | 17 | 54 | 1016 | 10 | S/SE 18.5 | |
| Ieri h: 22:52 | Sereno | 28 | 17 | 51 | 1015 | 10 | S/SE 18.5 | |
| Ieri h: 21:52 | Sereno | 29 | 17 | 48 | 1015 | 10 | S 22.2 | |
| Ieri h: 20:52 | Sereno | 31 | 16 | 40 | 1015 | 10 | S/SE 16.7 | |
| Ieri h: 19:52 | Sereno | 31 | 16 | 40 | 1014 | 10 | S/SE 14.8 | |
| Ieri h: 18:52 | Sereno | 34 | 16 | 34 | 1014 | 10 | S/SE 14.8 | |
| Ieri h: 17:52 | Sereno | 34 | 15 | 32 | 1014 | 10 | S/SE 18.5 | |
| Ieri h: 16:52 | Sereno | 36 | 15 | 28 | 1014 | 10 | S/SE 20.3 | |
| Ieri h: 15:52 | Poco Nuvoloso | 36 | 16 | 30 | 1015 | 10 | S/SE 16.7 | |
| Ieri h: 14:52 | Poco Nuvoloso | 36 | 16 | 30 | 1015 | 10 | N 9.3 | |
| Ieri h: 13:52 | Sereno | 36 | 16 | 30 | 1016 | 10 | S/SO 16.7 | |



